createdAt,value
2018-06-25T00:00:12.091Z,9.80
2018-06-25T00:02:41.110Z,9.43
2018-06-25T00:05:10.186Z,12.07
2018-06-25T00:07:39.190Z,10.03
2018-06-25T00:10:08.243Z,11.57
2018-06-25T00:12:37.281Z,10.00
2018-06-25T00:15:06.528Z,13.60
2018-06-25T00:17:35.577Z,13.00
2018-06-25T00:20:04.679Z,15.73
2018-06-25T00:22:33.766Z,14.43
2018-06-25T00:25:02.792Z,12.73
2018-06-25T00:27:31.867Z,17.43
2018-06-25T00:30:01.034Z,17.00
2018-06-25T00:32:30.130Z,13.47
2018-06-25T00:34:59.244Z,18.73
2018-06-25T00:37:28.317Z,18.63
2018-06-25T00:39:57.430Z,18.23
2018-06-25T00:42:26.474Z,16.20
2018-06-25T00:44:55.517Z,16.00
2018-06-25T00:47:24.563Z,20.50
2018-06-25T00:49:53.611Z,15.00
2018-06-25T00:52:22.650Z,16.83
2018-06-25T00:54:51.700Z,17.63
2018-06-25T00:57:20.761Z,18.87
2018-06-25T00:59:53.430Z,18.07
2018-06-25T01:02:22.737Z,18.80
2018-06-25T01:04:51.811Z,17.30
2018-06-25T01:07:20.975Z,15.60
2018-06-25T01:09:50.190Z,17.77
2018-06-25T01:12:19.231Z,24.47
2018-06-25T01:14:48.250Z,23.87
2018-06-25T01:17:17.316Z,19.57
2018-06-25T01:19:46.348Z,20.77
2018-06-25T01:22:15.368Z,25.27
2018-06-25T01:24:44.384Z,22.80
2018-06-25T01:27:13.446Z,23.60
2018-06-25T01:29:42.878Z,21.30
2018-06-25T01:32:11.944Z,24.47
2018-06-25T01:34:40.992Z,24.80
2018-06-25T01:37:10.011Z,27.30
2018-06-25T01:39:39.054Z,21.70
2018-06-25T01:42:08.144Z,25.20
2018-06-25T01:44:37.177Z,23.27
2018-06-25T01:47:06.263Z,21.40
2018-06-25T01:49:35.291Z,20.57
2018-06-25T01:52:04.314Z,26.57
2018-06-25T01:54:33.339Z,27.97
2018-06-25T01:57:02.412Z,24.30
2018-06-25T01:59:31.435Z,22.33
2018-06-25T02:02:00.482Z,20.17
2018-06-25T02:04:29.523Z,26.57
2018-06-25T02:06:58.570Z,22.37
2018-06-25T02:09:27.563Z,22.77
2018-06-25T02:11:56.591Z,23.17
2018-06-25T02:14:25.188Z,25.00
2018-06-25T02:16:54.211Z,25.30
2018-06-25T02:19:23.247Z,24.23
2018-06-25T02:21:52.385Z,21.10
2018-06-25T02:24:21.447Z,24.27
2018-06-25T02:26:50.020Z,20.57
2018-06-25T02:29:19.008Z,34.83
2018-06-25T02:31:48.090Z,21.03
2018-06-25T02:34:17.117Z,20.37
2018-06-25T02:36:46.193Z,25.13
2018-06-25T02:39:15.212Z,23.30
2018-06-25T02:41:44.336Z,24.90
2018-06-25T02:44:13.418Z,31.40
2018-06-25T02:46:42.427Z,29.93
2018-06-25T02:49:11.634Z,28.23
2018-06-25T02:51:40.674Z,23.33
2018-06-25T02:54:09.724Z,29.80
2018-06-25T02:56:38.778Z,39.93
2018-06-25T02:59:07.896Z,29.53
2018-06-25T03:01:37.028Z,30.90
2018-06-25T03:04:06.063Z,32.90
2018-06-25T03:06:35.120Z,27.07
2018-06-25T03:09:05.918Z,25.13
2018-06-25T03:11:34.974Z,22.30
2018-06-25T03:14:04.214Z,23.27
2018-06-25T03:16:33.231Z,24.60
2018-06-25T03:19:02.289Z,23.17
2018-06-25T03:21:31.301Z,31.77
2018-06-25T03:24:00.370Z,25.97
2018-06-25T03:26:29.381Z,24.03
2018-06-25T03:28:58.446Z,26.17
2018-06-25T03:31:27.456Z,26.10
2018-06-25T03:33:56.510Z,27.13
2018-06-25T03:36:25.514Z,23.83
2018-06-25T03:38:54.551Z,21.77
2018-06-25T03:41:23.612Z,19.73
2018-06-25T03:43:52.615Z,20.00
2018-06-25T03:46:21.650Z,22.30
2018-06-25T03:48:50.653Z,21.70
2018-06-25T03:51:19.699Z,26.10
2018-06-25T03:53:48.692Z,23.03
2018-06-25T03:56:17.706Z,23.67
2018-06-25T03:58:46.711Z,27.03
2018-06-25T04:01:15.767Z,21.63
2018-06-25T04:03:44.764Z,21.23
2018-06-25T04:06:13.799Z,23.17
2018-06-25T04:08:43.085Z,20.97
2018-06-25T04:11:11.712Z,22.80
2018-06-25T04:13:40.767Z,17.33
2018-06-25T04:16:09.900Z,21.03
2018-06-25T04:18:38.946Z,29.93
2018-06-25T04:21:07.994Z,19.00
2018-06-25T04:23:37.069Z,22.77
2018-06-25T04:26:06.216Z,23.60
2018-06-25T04:28:35.268Z,21.67
2018-06-25T04:31:04.285Z,30.43
2018-06-25T04:33:33.354Z,22.00
2018-06-25T04:36:02.398Z,25.20
2018-06-25T04:38:31.420Z,18.77
2018-06-25T04:41:00.479Z,23.30
2018-06-25T04:43:29.053Z,21.60
2018-06-25T04:45:58.088Z,23.00
2018-06-25T04:48:27.074Z,16.43
2018-06-25T04:50:56.104Z,16.03
2018-06-25T04:53:25.130Z,19.20
2018-06-25T04:55:54.139Z,14.93
2018-06-25T04:58:23.179Z,14.87
2018-06-25T05:00:52.220Z,20.03
2018-06-25T05:03:21.251Z,19.10
2018-06-25T05:05:50.358Z,17.73
2018-06-25T05:08:19.372Z,14.80
2018-06-25T05:10:48.395Z,17.00
2018-06-25T05:13:17.434Z,15.57
2018-06-25T05:15:46.498Z,14.50
2018-06-25T05:18:15.621Z,18.03
2018-06-25T05:20:44.716Z,21.47
2018-06-25T05:23:13.794Z,20.43
2018-06-25T05:25:42.916Z,15.80
2018-06-25T05:28:11.940Z,18.60
2018-06-25T05:30:40.981Z,16.50
2018-06-25T05:33:10.028Z,15.20
2018-06-25T05:35:39.039Z,17.20
2018-06-25T05:38:08.113Z,13.30
2018-06-25T05:40:37.215Z,17.53
2018-06-25T05:43:06.331Z,18.53
2018-06-25T05:45:35.381Z,17.50
2018-06-25T05:48:04.376Z,19.07
2018-06-25T05:50:34.462Z,16.87
2018-06-25T05:53:03.552Z,16.93
2018-06-25T05:55:32.616Z,13.60
2018-06-25T05:58:01.687Z,21.03
2018-06-25T06:00:30.822Z,18.13
2018-06-25T06:02:59.892Z,17.60
2018-06-25T06:05:28.982Z,15.47
2018-06-25T06:07:58.038Z,13.97
2018-06-25T06:10:27.067Z,12.93
2018-06-25T06:12:56.126Z,11.07
2018-06-25T06:15:25.169Z,11.43
2018-06-25T06:17:54.271Z,13.93
2018-06-25T06:20:23.380Z,11.10
2018-06-25T06:22:52.460Z,15.03
2018-06-25T06:25:21.526Z,12.60
2018-06-25T06:27:50.630Z,17.70
2018-06-25T06:30:19.712Z,14.37
2018-06-25T06:32:48.787Z,11.90
2018-06-25T06:35:17.799Z,10.20
2018-06-25T06:37:46.919Z,14.80
2018-06-25T06:40:15.977Z,17.47
2018-06-25T06:42:45.209Z,15.20
2018-06-25T06:45:14.303Z,13.80
2018-06-25T06:47:43.345Z,10.07
2018-06-25T06:50:11.977Z,11.73
2018-06-25T06:52:41.092Z,14.50
2018-06-25T06:55:10.150Z,11.63
2018-06-25T06:57:39.225Z,16.13
2018-06-25T07:00:08.427Z,11.43
2018-06-25T07:02:37.589Z,14.23
2018-06-25T07:05:06.817Z,17.77
2018-06-25T07:07:35.932Z,12.87
2018-06-25T07:10:05.176Z,16.23
2018-06-25T07:12:33.728Z,13.13
2018-06-25T07:15:02.778Z,13.80
2018-06-25T07:17:31.888Z,21.87
2018-06-25T07:20:01.010Z,24.10
2018-06-25T07:22:30.076Z,13.87
2018-06-25T07:24:59.183Z,14.17
2018-06-25T07:27:28.288Z,18.43
2018-06-25T07:29:57.331Z,17.40
2018-06-25T07:32:26.472Z,15.70
2018-06-25T07:34:55.557Z,15.40
2018-06-25T07:37:24.634Z,18.50
2018-06-25T07:39:53.686Z,12.80
2018-06-25T07:42:22.913Z,17.03
2018-06-25T07:44:52.013Z,14.10
2018-06-25T07:47:21.204Z,12.10
2018-06-25T07:49:50.362Z,13.23
2018-06-25T07:52:19.402Z,10.00
2018-06-25T07:54:48.441Z,13.00
2018-06-25T07:57:17.512Z,11.43
2018-06-25T07:59:46.660Z,8.50
2018-06-25T08:02:15.690Z,11.07
2018-06-25T08:04:44.751Z,13.03
2018-06-25T08:07:13.856Z,9.73
2018-06-25T08:09:42.860Z,26.10
2018-06-25T08:12:11.972Z,10.30
2018-06-25T08:14:40.997Z,10.93
2018-06-25T08:17:10.060Z,11.50
2018-06-25T08:19:39.354Z,10.83
2018-06-25T08:22:08.517Z,11.50
2018-06-25T08:24:37.580Z,7.90
2018-06-25T08:27:06.618Z,5.80
2018-06-25T08:29:35.696Z,6.07
2018-06-25T08:32:04.771Z,6.10
2018-06-25T08:34:33.994Z,5.77
2018-06-25T08:37:04.636Z,6.70
2018-06-25T08:39:33.723Z,9.70
2018-06-25T08:42:02.773Z,8.63
2018-06-25T08:44:31.859Z,6.60
2018-06-25T08:47:01.066Z,7.90
2018-06-25T08:49:30.102Z,5.80
2018-06-25T08:51:59.966Z,6.80
2018-06-25T08:54:29.092Z,8.20
2018-06-25T08:56:58.195Z,7.70
2018-06-25T08:59:27.386Z,6.60
2018-06-25T09:01:56.499Z,8.57
2018-06-25T09:04:25.780Z,7.40
2018-06-25T09:06:54.750Z,5.43
2018-06-25T09:09:24.201Z,5.87
2018-06-25T09:11:53.244Z,6.20
2018-06-25T09:14:22.263Z,8.47
2018-06-25T09:16:51.318Z,5.73
2018-06-25T09:19:20.331Z,5.80
2018-06-25T09:21:49.358Z,7.97
2018-06-25T09:24:18.439Z,4.70
2018-06-25T09:26:47.438Z,6.33
2018-06-25T09:29:16.551Z,5.50
2018-06-25T09:31:45.580Z,5.73
2018-06-25T09:34:19.937Z,4.90
2018-06-25T09:36:48.965Z,5.70
2018-06-25T09:39:17.986Z,9.40
2018-06-25T09:41:47.243Z,6.07
2018-06-25T09:44:16.070Z,5.30
2018-06-25T09:46:45.111Z,8.57
2018-06-25T09:49:14.155Z,6.33
2018-06-25T09:51:43.178Z,6.17
2018-06-25T09:54:12.240Z,5.90
2018-06-25T09:56:41.477Z,7.00
2018-06-25T09:59:10.594Z,7.50
2018-06-25T10:01:39.572Z,4.10
2018-06-25T10:04:08.610Z,9.47
2018-06-25T10:06:37.623Z,4.10
2018-06-25T10:09:09.902Z,4.03
2018-06-25T10:11:39.104Z,3.77
2018-06-25T10:14:08.210Z,4.00
2018-06-25T10:16:37.236Z,4.03
2018-06-25T10:19:06.284Z,3.80
2018-06-25T10:21:35.318Z,4.83
2018-06-25T10:24:04.375Z,3.47
2018-06-25T10:26:33.415Z,3.67
2018-06-25T10:29:02.413Z,6.90
2018-06-25T10:31:31.567Z,3.40
2018-06-25T10:34:00.570Z,4.50
2018-06-25T10:36:29.618Z,4.60
2018-06-25T10:38:58.670Z,4.10
2018-06-25T10:41:27.730Z,7.13
2018-06-25T10:43:56.767Z,4.03
2018-06-25T10:46:25.772Z,4.00
2018-06-25T10:48:55.183Z,9.70
2018-06-25T10:51:24.269Z,4.73
2018-06-25T10:53:53.341Z,3.73
2018-06-25T10:56:22.376Z,3.93
2018-06-25T10:58:51.581Z,7.37
2018-06-25T11:01:20.672Z,3.20
2018-06-25T11:03:49.765Z,4.07
2018-06-25T11:06:18.802Z,3.50
2018-06-25T11:08:47.880Z,7.50
2018-06-25T11:11:16.932Z,3.10
2018-06-25T11:13:46.020Z,3.37
2018-06-25T11:16:15.048Z,3.90
2018-06-25T11:18:44.093Z,5.70
2018-06-25T11:21:13.126Z,3.40
2018-06-25T11:23:42.150Z,6.13
2018-06-25T11:26:11.231Z,3.50
2018-06-25T11:28:40.244Z,3.27
2018-06-25T11:31:09.300Z,2.77
2018-06-25T11:33:38.280Z,3.37
2018-06-25T11:36:07.334Z,3.47
2018-06-25T11:38:36.360Z,3.20
2018-06-25T11:41:05.408Z,4.30
2018-06-25T11:43:34.465Z,7.53
2018-06-25T11:46:03.491Z,3.07
2018-06-25T11:48:32.589Z,4.50
2018-06-25T11:51:01.585Z,3.13
2018-06-25T11:53:30.600Z,3.13
2018-06-25T11:55:59.618Z,3.27
2018-06-25T11:58:28.655Z,2.70
2018-06-25T12:00:57.209Z,3.50
2018-06-25T12:03:26.280Z,5.27
2018-06-25T12:05:55.328Z,3.67
2018-06-25T12:08:24.366Z,2.70
2018-06-25T12:10:53.384Z,6.43
2018-06-25T12:13:22.423Z,3.50
2018-06-25T12:15:51.478Z,2.77
2018-06-25T12:18:20.497Z,5.00
2018-06-25T12:20:49.543Z,2.60
2018-06-25T12:23:18.553Z,3.40
2018-06-25T12:25:47.580Z,2.90
2018-06-25T12:28:16.575Z,3.00
2018-06-25T12:30:45.646Z,3.07
2018-06-25T12:33:14.658Z,5.00
2018-06-25T12:35:43.715Z,2.87
2018-06-25T12:38:12.732Z,2.27
2018-06-25T12:40:41.335Z,2.07
2018-06-25T12:43:10.524Z,3.07
2018-06-25T12:45:39.554Z,1.90
2018-06-25T12:48:08.693Z,4.07
2018-06-25T12:50:37.762Z,1.87
2018-06-25T12:53:06.877Z,3.43
2018-06-25T12:55:35.938Z,1.30
2018-06-25T12:58:05.031Z,2.00
2018-06-25T13:00:34.043Z,1.27
2018-06-25T13:03:03.100Z,1.63
2018-06-25T13:05:32.256Z,4.60
2018-06-25T13:08:01.398Z,2.00
2018-06-25T13:10:30.490Z,1.60
2018-06-25T13:12:59.572Z,3.20
2018-06-25T13:15:28.555Z,2.77
2018-06-25T13:17:57.628Z,1.70
2018-06-25T13:20:26.631Z,5.47
2018-06-25T13:22:55.699Z,2.00
2018-06-25T13:25:24.763Z,2.03
2018-06-25T13:27:53.804Z,1.87
2018-06-25T13:30:22.954Z,2.00
2018-06-25T13:32:52.025Z,2.40
2018-06-25T13:35:21.231Z,3.43
2018-06-25T13:37:50.265Z,3.10
2018-06-25T13:40:19.745Z,3.23
2018-06-25T13:42:48.796Z,4.70
2018-06-25T13:45:17.835Z,4.60
2018-06-25T13:47:46.849Z,1.93
2018-06-25T13:50:15.900Z,3.83
2018-06-25T13:52:44.925Z,3.73
2018-06-25T13:55:13.959Z,1.83
2018-06-25T13:57:42.994Z,2.53
2018-06-25T14:00:12.123Z,2.93
2018-06-25T14:02:41.135Z,3.30
2018-06-25T14:05:10.165Z,2.70
2018-06-25T14:07:39.221Z,8.20
2018-06-25T14:10:09.143Z,4.57
2018-06-25T14:12:38.290Z,5.13
2018-06-25T14:15:07.826Z,2.20
2018-06-25T14:17:36.892Z,1.90
2018-06-25T14:20:06.000Z,2.87
2018-06-25T14:22:35.152Z,1.73
2018-06-25T14:25:04.586Z,5.67
2018-06-25T14:27:38.317Z,1.80
2018-06-25T14:30:13.764Z,3.50
2018-06-25T14:32:42.908Z,2.50
2018-06-25T14:35:14.957Z,2.10
2018-06-25T14:37:44.591Z,5.17
2018-06-25T14:40:13.657Z,3.90
2018-06-25T14:42:42.739Z,5.27
2018-06-25T14:45:11.787Z,4.07
2018-06-25T14:47:41.052Z,2.77
2018-06-25T14:50:10.206Z,2.20
2018-06-25T14:52:39.331Z,5.93
2018-06-25T14:55:08.400Z,1.93
2018-06-25T14:57:37.443Z,3.03
2018-06-25T15:00:06.611Z,5.53
2018-06-25T15:02:35.928Z,3.00
2018-06-25T15:05:05.116Z,4.00
2018-06-25T15:07:34.144Z,2.40
2018-06-25T15:10:03.225Z,4.73
2018-06-25T15:12:32.303Z,1.97
2018-06-25T15:15:01.316Z,4.83
2018-06-25T15:17:30.409Z,4.03
2018-06-25T15:19:59.446Z,2.40
2018-06-25T15:22:28.478Z,2.17
2018-06-25T15:24:57.475Z,3.00
2018-06-25T15:27:26.583Z,3.20
2018-06-25T15:29:55.621Z,4.80
2018-06-25T15:32:27.995Z,1.83
2018-06-25T15:34:57.050Z,2.20
2018-06-25T15:37:35.633Z,2.10
2018-06-25T15:40:04.747Z,4.83
2018-06-25T15:42:33.760Z,2.40
2018-06-25T15:45:02.946Z,6.47
2018-06-25T15:47:38.257Z,2.50
2018-06-25T15:50:07.279Z,1.93
2018-06-25T15:52:36.778Z,3.40
2018-06-25T15:55:05.879Z,1.50
2018-06-25T15:57:34.967Z,1.43
2018-06-25T16:00:04.271Z,3.53
2018-06-25T16:02:33.260Z,3.30
2018-06-25T16:05:02.392Z,1.37
2018-06-25T16:07:31.475Z,1.67
2018-06-25T16:10:00.532Z,2.30
2018-06-25T16:12:29.616Z,1.63
2018-06-25T16:14:58.682Z,1.40
2018-06-25T16:17:27.707Z,4.67
2018-06-25T16:19:56.756Z,2.23
2018-06-25T16:22:25.859Z,3.27
2018-06-25T16:24:54.902Z,1.73
2018-06-25T16:27:23.894Z,2.13
2018-06-25T16:29:52.943Z,2.97
2018-06-25T16:32:22.175Z,1.60
2018-06-25T16:34:51.181Z,1.10
2018-06-25T16:37:21.047Z,1.20
2018-06-25T16:39:50.145Z,1.30
2018-06-25T16:42:19.282Z,1.63
2018-06-25T16:44:48.513Z,1.73
2018-06-25T16:47:18.251Z,1.23
2018-06-25T16:49:47.865Z,1.10
2018-06-25T16:52:18.019Z,1.40
2018-06-25T16:54:47.695Z,1.70
2018-06-25T16:57:17.229Z,3.13
2018-06-25T16:59:46.685Z,1.20
2018-06-25T17:02:16.139Z,1.10
2018-06-25T17:04:45.664Z,1.90
2018-06-25T17:07:15.308Z,2.70
2018-06-25T17:09:44.183Z,3.00
2018-06-25T17:12:13.591Z,1.00
2018-06-25T17:14:43.049Z,0.90
2018-06-25T17:17:12.446Z,1.10
2018-06-25T17:19:41.912Z,1.10
2018-06-25T17:22:11.330Z,1.00
2018-06-25T17:24:40.757Z,1.43
2018-06-25T17:27:10.189Z,1.10
2018-06-25T17:29:39.688Z,0.97
2018-06-25T17:32:09.153Z,1.03
2018-06-25T17:34:38.399Z,2.23
2018-06-25T17:37:07.908Z,2.17
2018-06-25T17:39:37.370Z,1.07
2018-06-25T17:42:06.751Z,1.27
2018-06-25T17:44:36.063Z,1.77
2018-06-25T17:47:05.649Z,3.57
2018-06-25T17:49:35.150Z,0.73
2018-06-25T17:52:04.607Z,3.90
2018-06-25T17:54:33.969Z,1.00
2018-06-25T17:57:03.449Z,1.30
2018-06-25T17:59:32.992Z,1.00
2018-06-25T18:02:02.310Z,0.93
2018-06-25T18:04:32.533Z,1.10
2018-06-25T18:07:01.939Z,1.30
2018-06-25T18:09:31.523Z,1.27
2018-06-25T18:12:01.049Z,0.80
2018-06-25T18:14:30.596Z,1.23
2018-06-25T18:16:59.919Z,1.20
2018-06-25T18:19:29.227Z,0.87
2018-06-25T18:21:58.740Z,1.37
2018-06-25T18:24:28.142Z,1.87
2018-06-25T18:26:57.541Z,1.30
2018-06-25T18:29:27.042Z,1.93
2018-06-25T18:31:56.474Z,1.10
2018-06-25T18:34:25.942Z,1.43
2018-06-25T18:36:55.303Z,1.23
2018-06-25T18:39:24.747Z,2.10
2018-06-25T18:41:54.106Z,1.97
2018-06-25T18:44:24.993Z,5.23
2018-06-25T18:46:54.915Z,2.33
2018-06-25T18:49:24.341Z,1.17
2018-06-25T18:51:55.071Z,1.37
2018-06-25T18:54:24.564Z,2.50
2018-06-25T18:56:54.105Z,1.27
2018-06-25T18:59:23.298Z,1.20
2018-06-25T19:01:53.130Z,1.33
2018-06-25T19:04:23.043Z,1.40
2018-06-25T19:06:52.544Z,1.30
2018-06-25T19:09:22.559Z,1.60
2018-06-25T19:11:52.056Z,1.83
2018-06-25T19:14:21.920Z,1.93
2018-06-25T19:16:51.646Z,3.57
2018-06-25T19:19:21.784Z,4.57
2018-06-25T19:21:52.097Z,4.00
2018-06-25T19:24:22.027Z,10.20
2018-06-25T19:26:51.848Z,5.53
2018-06-25T19:29:22.847Z,5.60
2018-06-25T19:31:52.729Z,3.07
2018-06-25T19:34:22.258Z,3.07
2018-06-25T19:36:51.688Z,4.40
2018-06-25T19:39:21.503Z,3.60
2018-06-25T19:41:50.927Z,3.77
2018-06-25T19:44:20.805Z,3.40
2018-06-25T19:46:51.807Z,3.43
2018-06-25T19:49:21.679Z,2.73
2018-06-25T19:51:52.459Z,2.03
2018-06-25T19:54:28.272Z,2.73
2018-06-25T19:56:58.273Z,4.03
2018-06-25T19:59:28.320Z,3.23
2018-06-25T20:01:58.312Z,4.40
2018-06-25T20:04:28.207Z,2.63
2018-06-25T20:06:57.404Z,2.60
2018-06-25T20:09:26.739Z,2.43
2018-06-25T20:11:56.836Z,2.40
2018-06-25T20:14:25.820Z,2.57
2018-06-25T20:16:55.434Z,5.03
2018-06-25T20:19:25.483Z,2.40
2018-06-25T20:21:55.867Z,2.13
2018-06-25T20:24:24.506Z,2.70
2018-06-25T20:26:54.985Z,2.83
2018-06-25T20:29:25.121Z,3.00
2018-06-25T20:31:54.740Z,7.57
2018-06-25T20:34:24.442Z,2.93
2018-06-25T20:36:54.713Z,4.30
2018-06-25T20:39:24.280Z,4.43
2018-06-25T20:41:54.687Z,3.43
2018-06-25T20:44:24.290Z,3.13
2018-06-25T20:46:54.217Z,5.10
2018-06-25T20:49:23.735Z,2.90
2018-06-25T20:51:53.303Z,4.10
2018-06-25T20:54:22.818Z,3.00
2018-06-25T20:56:52.616Z,2.93
2018-06-25T20:59:22.016Z,3.00
2018-06-25T21:01:51.765Z,3.40
2018-06-25T21:04:21.616Z,3.00
2018-06-25T21:06:51.283Z,3.03
2018-06-25T21:09:21.925Z,8.33
2018-06-25T21:11:51.497Z,3.90
2018-06-25T21:14:21.099Z,3.30
2018-06-25T21:16:50.681Z,3.37
2018-06-25T21:19:20.305Z,4.57
2018-06-25T21:21:49.906Z,3.27
2018-06-25T21:24:19.502Z,3.33
2018-06-25T21:26:49.133Z,5.20
2018-06-25T21:29:18.589Z,3.30
2018-06-25T21:31:48.111Z,3.70
2018-06-25T21:34:18.005Z,4.30
2018-06-25T21:36:47.462Z,3.97
2018-06-25T21:39:17.093Z,3.37
2018-06-25T21:41:46.960Z,5.87
2018-06-25T21:44:16.040Z,3.40
2018-06-25T21:46:45.049Z,3.37
2018-06-25T21:49:14.112Z,4.80
2018-06-25T21:51:43.117Z,4.70
2018-06-25T21:54:11.755Z,2.87
2018-06-25T21:56:40.949Z,3.80
2018-06-25T21:59:10.035Z,3.87
2018-06-25T22:01:39.195Z,4.10
2018-06-25T22:04:08.232Z,3.60
2018-06-25T22:06:37.252Z,3.30
2018-06-25T22:09:09.168Z,5.43
2018-06-25T22:11:38.267Z,3.77
2018-06-25T22:14:07.423Z,4.90
2018-06-25T22:16:36.491Z,3.60
2018-06-25T22:19:05.535Z,4.90
2018-06-25T22:21:34.692Z,3.80
2018-06-25T22:24:03.783Z,3.43
2018-06-25T22:26:32.876Z,4.20
2018-06-25T22:29:01.875Z,4.00
2018-06-25T22:31:30.972Z,4.80
2018-06-25T22:33:59.523Z,3.33
2018-06-25T22:36:28.631Z,4.40
2018-06-25T22:38:57.687Z,4.83
2018-06-25T22:41:26.801Z,5.90
2018-06-25T22:44:11.043Z,4.03
2018-06-25T22:46:41.285Z,5.27
2018-06-25T22:49:10.764Z,4.67
2018-06-25T22:51:39.882Z,3.57
2018-06-25T22:54:09.323Z,6.30
2018-06-25T22:56:38.383Z,4.23
2018-06-25T22:59:07.415Z,3.50
2018-06-25T23:01:36.415Z,5.17
2018-06-25T23:04:05.575Z,3.87
2018-06-25T23:06:34.667Z,4.03
2018-06-25T23:09:04.775Z,4.40
2018-06-25T23:11:33.795Z,4.43
2018-06-25T23:14:02.871Z,5.00
2018-06-25T23:16:31.940Z,4.07
2018-06-25T23:19:01.054Z,4.50
2018-06-25T23:21:30.148Z,3.97
2018-06-25T23:23:59.183Z,4.43
2018-06-25T23:26:28.322Z,4.67
2018-06-25T23:28:57.375Z,7.97
2018-06-25T23:31:26.421Z,4.83
2018-06-25T23:33:55.432Z,4.80
2018-06-25T23:36:24.471Z,5.00
2018-06-25T23:38:53.487Z,4.37
2018-06-25T23:41:22.523Z,4.50
2018-06-25T23:43:51.554Z,8.93
2018-06-25T23:46:20.582Z,5.57
2018-06-25T23:48:49.631Z,6.20
2018-06-25T23:51:18.647Z,5.67
2018-06-25T23:53:47.671Z,4.33
2018-06-25T23:56:16.672Z,4.50
2018-06-25T23:58:47.771Z,5.00
